Time;durP1;ratioP1;P1;durP2;ratioP2;P2;SDS_P1;SDS_P2;PMS_P1;PMS_P2;Temp;Humidity;BMP_temperature;BMP_pressure;BME280_temperature;BME280_humidity;BME280_pressure;Samples;Min_cycle;Max_cycle;Signal;HPM_P1;HPM_P2
2022/01/03 00:00:28;;;;;;;80.00;38.63;;;;;;;1.76;100.00;101557.97;5042427;28;20061;-71
2022/01/03 00:02:59;;;;;;;84.47;33.65;;;;;;;1.74;100.00;101550.91;5034192;28;20053;-72
2022/01/03 00:05:28;;;;;;;78.18;33.72;;;;;;;1.70;100.00;101546.94;5044023;28;20053;-71
2022/01/03 00:07:57;;;;;;;62.40;32.45;;;;;;;1.71;100.00;101537.81;5051201;28;20041;-71
2022/01/03 00:10:26;;;;;;;64.97;33.15;;;;;;;1.64;100.00;101541.47;5055661;28;20057;-71
2022/01/03 00:12:54;;;;;;;59.10;29.30;;;;;;;1.59;100.00;101552.88;5054293;28;20056;-71
2022/01/03 00:15:23;;;;;;;74.70;37.53;;;;;;;1.64;100.00;101541.47;5055571;28;20037;-71
2022/01/03 00:17:53;;;;;;;71.20;33.65;;;;;;;1.64;100.00;101541.47;5055489;28;20049;-71
2022/01/03 00:20:22;;;;;;;69.45;34.25;;;;;;;1.63;100.00;101537.13;5041837;28;20052;-71
2022/01/03 00:22:50;;;;;;;62.63;31.58;;;;;;;1.62;100.00;101533.59;5050393;28;20037;-71
2022/01/03 00:25:20;;;;;;;66.50;31.73;;;;;;;1.71;100.00;101534.28;5032923;28;20050;-71
2022/01/03 00:28:03;;;;;;;67.30;32.30;;;;;;;1.68;100.00;101530.13;5040053;28;20041;-71
2022/01/03 00:30:37;;;;;;;69.95;32.65;;;;;;;1.71;100.00;101529.69;5037889;28;20054;-71
2022/01/03 00:33:06;;;;;;;;;;;;;;;1.79;100.00;101535.97;5055250;28;20049;-71
2022/01/03 00:35:39;;;;;;;67.47;33.10;;;;;;;1.71;100.00;101524.31;5054231;28;19928;-71
2022/01/03 00:38:09;;;;;;;63.37;32.97;;;;;;;1.64;100.00;101512.63;5052791;28;20060;-71
2022/01/03 00:40:39;;;;;;;67.35;32.78;;;;;;;1.66;100.00;101521.38;5052915;28;20627;-71
2022/01/03 00:43:07;;;;;;;69.85;32.58;;;;;;;1.66;100.00;101515.16;5053084;28;20525;-71
2022/01/03 00:45:35;;;;;;;65.03;31.20;;;;;;;1.62;100.00;101522.81;5054321;28;20068;-71
2022/01/03 00:48:07;;;;;;;69.78;33.75;;;;;;;1.58;100.00;101519.66;5041130;28;20483;-71
2022/01/03 00:50:35;;;;;;;62.75;30.55;;;;;;;1.64;100.00;101517.19;5053196;28;20511;-71
2022/01/03 00:53:05;;;;;;;63.17;31.67;;;;;;;1.61;100.00;101530.06;5041604;28;20049;-71
2022/01/03 00:55:33;;;;;;;71.15;31.98;;;;;;;1.59;100.00;101520.50;5035302;28;20058;-71
2022/01/03 00:58:06;;;;;;;65.63;31.48;;;;;;;1.60;100.00;101519.44;5049157;28;20060;-71
2022/01/03 01:00:38;;;;;;;64.60;32.67;;;;;;;1.72;100.00;101509.78;5048161;28;20403;-71
2022/01/03 01:03:18;;;;;;;64.65;31.90;;;;;;;1.67;100.00;101511.41;5051127;28;20063;-71
2022/01/03 01:05:50;;;;;;;61.67;28.95;;;;;;;1.63;100.00;101500.19;5052550;28;20411;-71
2022/01/03 01:08:20;;;;;;;62.78;30.30;;;;;;;1.61;100.00;101472.53;5054114;28;20064;-71
2022/01/03 01:10:52;;;;;;;64.50;30.85;;;;;;;1.58;100.00;101483.75;5055014;28;20057;-71
2022/01/03 01:13:22;;;;;;;65.35;30.73;;;;;;;1.58;100.00;101500.78;5052422;28;20052;-71
2022/01/03 01:15:51;;;;;;;56.80;29.90;;;;;;;1.59;100.00;101498.91;5044040;28;20048;-72
2022/01/03 01:18:22;;;;;;;60.83;30.60;;;;;;;1.66;100.00;101507.06;5054375;28;20056;-71
2022/01/03 01:20:50;;;;;;;58.88;31.83;;;;;;;1.71;100.00;101528.88;5052499;28;20053;-71
2022/01/03 01:23:20;;;;;;;57.25;30.98;;;;;;;1.72;100.00;101535.94;5052773;28;20049;-71
2022/01/03 01:28:16;;;;;;;55.58;27.90;;;;;;;1.56;100.00;101531.69;5054367;28;20056;-71
2022/01/03 01:30:48;;;;;;;62.13;29.58;;;;;;;1.66;100.00;101531.34;5039563;28;20041;-71
2022/01/03 01:33:17;;;;;;;70.82;32.25;;;;;;;1.75;100.00;101511.25;5053627;28;20045;-71
2022/01/03 01:36:07;;;;;;;62.40;31.48;;;;;;;1.71;100.00;101512.69;5038615;28;20048;-71
2022/01/03 01:38:38;;;;;;;56.00;30.75;;;;;;;1.73;100.00;101513.31;5052616;28;20048;-71
2022/01/03 01:41:08;;;;;;;58.10;29.70;;;;;;;1.70;100.00;101506.44;5052483;28;20059;-71
2022/01/03 01:43:47;;;;;;;56.55;26.90;;;;;;;1.73;100.00;101489.03;5045831;28;20048;-71
2022/01/03 01:46:21;;;;;;;54.28;27.10;;;;;;;1.71;100.00;101491.91;5052073;28;20403;-71
2022/01/03 01:49:04;;;;;;;51.40;26.38;;;;;;;1.73;100.00;101479.09;5051064;28;20049;-71
2022/01/03 01:51:37;;;;;;;49.40;25.75;;;;;;;1.71;100.00;101485.72;5052443;28;20049;-71
2022/01/03 01:54:13;;;;;;;46.25;23.55;;;;;;;1.74;100.00;101493.41;5051879;28;20067;-71
2022/01/03 01:57:02;;;;;;;46.58;23.15;;;;;;;1.70;100.00;101486.72;5053215;28;20396;-71
2022/01/03 01:59:59;;;;;;;47.65;23.17;;;;;;;1.78;100.00;101483.88;5049277;28;20041;-71
2022/01/03 02:02:35;;;;;;;44.75;23.83;;;;;;;1.65;100.00;101475.72;5053784;28;20470;-71
2022/01/03 02:05:18;;;;;;;49.17;23.23;;;;;;;1.87;100.00;101469.16;5051885;28;20057;-69
2022/01/03 02:08:04;;;;;;;48.50;24.95;;;;;;;1.79;100.00;101477.44;5053314;28;20052;-68
2022/01/03 02:10:45;;;;;;;47.63;22.50;;;;;;;1.78;100.00;101491.97;5049413;28;20412;-69
2022/01/03 02:13:16;;;;;;;46.63;24.05;;;;;;;1.85;100.00;101498.25;5051826;28;20041;-71
2022/01/03 02:15:49;;;;;;;44.20;21.70;;;;;;;1.97;100.00;101484.19;5051666;28;20048;-71
2022/01/03 02:18:17;;;;;;;47.10;22.67;;;;;;;1.84;100.00;101480.38;5051634;28;20041;-71
2022/01/03 02:20:45;;;;;;;44.75;23.10;;;;;;;1.82;100.00;101487.84;5051343;28;20056;-71
2022/01/03 02:23:14;;;;;;;47.65;21.98;;;;;;;1.81;100.00;101474.56;5039633;28;20061;-71
2022/01/03 02:25:44;;;;;;;44.97;22.10;;;;;;;1.79;100.00;101471.19;5039579;28;20052;-69
2022/01/03 02:28:13;;;;;;;49.95;21.77;;;;;;;1.88;100.00;101473.56;5043288;28;20068;-69
2022/01/03 02:30:41;;;;;;;42.40;21.10;;;;;;;2.01;100.00;101485.47;5045814;28;20041;-70
2022/01/03 02:33:09;;;;;;;49.72;22.48;;;;;;;2.12;100.00;101481.34;5044095;28;20503;-71
2022/01/03 02:35:40;;;;;;;46.38;21.00;;;;;;;1.97;100.00;101462.59;5051066;28;20045;-71
2022/01/03 02:38:13;;;;;;;42.60;20.33;;;;;;;1.92;100.00;101451.53;5049938;28;20530;-71
2022/01/03 02:40:42;;;;;;;49.72;23.08;;;;;;;2.04;100.00;101452.63;5052462;28;20056;-71
2022/01/03 02:43:10;;;;;;;43.13;21.27;;;;;;;2.04;100.00;101466.13;5052640;28;20053;-71
2022/01/03 02:45:38;;;;;;;45.33;20.77;;;;;;;1.95;100.00;101449.28;5051122;28;20053;-71
2022/01/03 02:48:07;;;;;;;46.80;21.77;;;;;;;1.87;100.00;101454.84;5046408;28;20500;-71
2022/01/03 02:50:36;;;;;;;44.75;20.10;;;;;;;1.90;100.00;101457.13;5044509;28;20057;-71
2022/01/03 02:53:05;;;;;;;48.85;20.73;;;;;;;1.91;100.00;101464.19;5036781;28;20424;-71
2022/01/03 02:55:34;;;;;;;40.38;22.05;;;;;;;1.90;100.00;101472.53;5043305;28;20052;-71
2022/01/03 02:58:08;;;;;;;39.28;20.55;;;;;;;1.99;100.00;101468.59;5042026;28;20049;-71
2022/01/03 03:00:48;;;;;;;40.85;21.08;;;;;;;1.97;100.00;101449.09;5032093;28;20061;-71
2022/01/03 03:03:29;;;;;;;39.72;20.10;;;;;;;1.94;100.00;101447.63;5038304;28;20052;-71
2022/01/03 03:06:01;;;;;;;39.15;21.42;;;;;;;1.93;100.00;101458.59;5040074;28;20392;-71
2022/01/03 03:08:32;;;;;;;42.00;21.15;;;;;;;1.94;100.00;101462.97;5025317;28;20041;-71
2022/01/03 03:11:00;;;;;;;40.85;20.23;;;;;;;1.92;100.00;101476.69;5050799;28;20396;-71
2022/01/03 03:13:29;;;;;;;37.90;20.35;;;;;;;1.91;100.00;101480.41;5038243;28;20055;-71
2022/01/03 03:16:00;;;;;;;39.80;20.55;;;;;;;2.07;100.00;101463.06;5050509;28;20049;-71
2022/01/03 03:18:29;;;;;;;41.78;19.92;;;;;;;1.98;100.00;101454.28;5050406;28;20041;-71
2022/01/03 03:20:58;;;;;;;45.53;22.48;;;;;;;1.95;100.00;101448.47;5051567;28;20407;-71
2022/01/03 03:23:27;;;;;;;44.90;21.15;;;;;;;1.95;100.00;101454.69;5034418;28;20055;-71
2022/01/03 03:25:55;;;;;;;45.80;19.85;;;;;;;1.96;100.00;101442.03;5050848;28;20045;-71
2022/01/03 03:28:25;;;;;;;39.95;19.23;;;;;;;1.98;100.00;101450.75;5033544;28;20052;-71
2022/01/03 03:30:58;;;;;;;50.45;21.23;;;;;;;2.19;100.00;101457.06;5040080;28;20499;-71
2022/01/03 03:33:41;;;;;;;43.63;20.65;;;;;;;2.28;100.00;101458.53;5037201;28;20060;-71
2022/01/03 03:36:09;;;;;;;40.63;19.30;;;;;;;2.14;100.00;101453.09;5025128;28;20053;-71
2022/01/03 03:38:38;;;;;;;40.03;19.92;;;;;;;2.11;100.00;101434.59;5041589;28;20411;-71
2022/01/03 03:41:10;;;;;;;36.25;18.85;;;;;;;2.19;100.00;101430.88;5021900;28;20056;-71
2022/01/03 03:43:46;;;;;;;42.33;20.20;;;;;;;2.21;100.00;101425.28;5050315;28;20053;-71
2022/01/03 03:46:14;;;;;;;43.03;20.58;;;;;;;2.11;100.00;101425.69;5051523;28;20064;-71
2022/01/03 03:48:42;;;;;;;43.40;20.65;;;;;;;2.13;100.00;101419.03;5050396;28;20056;-71
2022/01/03 03:51:15;;;;;;;43.63;20.55;;;;;;;2.12;100.00;101436.28;5050198;28;20052;-71
2022/01/03 03:53:45;;;;;;;40.50;18.98;;;;;;;2.10;100.00;101424.00;5050542;28;20080;-71
2022/01/03 03:56:13;;;;;;;41.45;19.75;;;;;;;1.94;100.00;101409.81;5037304;28;20049;-71
2022/01/03 03:58:41;;;;;;;36.83;18.33;;;;;;;1.96;100.00;101401.53;5051758;28;20044;-71
2022/01/03 04:01:09;;;;;;;40.85;18.83;;;;;;;1.94;100.00;101398.19;5043466;28;20057;-71
2022/01/03 04:03:44;;;;;;;46.35;20.15;;;;;;;2.02;100.00;101403.41;5050166;28;20492;-71
2022/01/03 04:06:14;;;;;;;45.00;21.30;;;;;;;2.12;100.00;101403.88;5050231;28;20084;-71
2022/01/03 04:08:45;;;;;;;43.95;21.05;;;;;;;2.09;100.00;101406.13;5049859;28;20052;-71
2022/01/03 04:11:14;;;;;;;39.47;19.17;;;;;;;2.07;100.00;101402.81;5049914;28;20404;-71
2022/01/03 04:13:42;;;;;;;42.72;21.10;;;;;;;2.09;100.00;101379.97;5050172;28;20056;-71
2022/01/03 04:16:11;;;;;;;44.58;20.98;;;;;;;2.07;100.00;101382.03;5050391;28;20059;-71
2022/01/03 04:18:40;;;;;;;37.95;20.83;;;;;;;2.07;100.00;101387.44;5036477;28;20056;-71
2022/01/03 04:21:09;;;;;;;39.45;19.58;;;;;;;1.99;100.00;101374.09;5049999;28;20045;-71
2022/01/03 04:23:37;;;;;;;38.25;20.65;;;;;;;1.96;100.00;101374.53;5051133;28;20060;-71
2022/01/03 04:26:05;;;;;;;40.58;20.67;;;;;;;1.99;100.00;101379.50;5049784;28;20488;-71
2022/01/03 04:28:33;;;;;;;41.28;19.88;;;;;;;1.94;100.00;101365.78;5043670;28;20038;-71
2022/01/03 04:31:01;;;;;;;42.13;20.35;;;;;;;2.14;100.00;101357.75;5036371;28;20038;-71
2022/01/03 04:33:32;;;;;;;42.63;21.23;;;;;;;2.05;100.00;101356.28;5050251;28;20037;-71
2022/01/03 04:36:01;;;;;;;42.08;21.10;;;;;;;2.15;100.00;101357.53;5045616;28;20049;-71
2022/01/03 04:38:29;;;;;;;47.75;21.48;;;;;;;2.20;100.00;101348.00;5051193;28;20060;-71
2022/01/03 04:40:59;;;;;;;42.88;19.90;;;;;;;2.34;100.00;101365.06;5049532;28;20061;-71
2022/01/03 04:43:27;;;;;;;49.65;18.48;;;;;;;2.21;100.00;101376.69;5050971;28;20487;-71
2022/01/03 04:45:56;;;;;;;39.85;19.13;;;;;;;2.18;100.00;101360.88;5050959;28;20060;-71
2022/01/03 04:48:24;;;;;;;42.75;19.63;;;;;;;2.10;100.00;101346.53;5050401;28;20059;-71
2022/01/03 04:50:52;;;;;;;45.35;19.27;;;;;;;2.08;100.00;101345.91;5052274;28;20407;-71
2022/01/03 04:53:25;;;;;;;44.00;21.05;;;;;;;2.22;100.00;101354.88;5053945;28;20063;-71
2022/01/03 04:55:54;;;;;;;41.55;18.77;;;;;;;2.17;100.00;101362.75;5039703;28;20045;-71
2022/01/03 04:58:22;;;;;;;46.08;19.90;;;;;;;2.14;100.00;101364.00;5053336;28;20048;-71
2022/01/03 05:00:50;;;;;;;43.25;19.50;;;;;;;2.10;100.00;101370.81;5054314;28;20053;-71
2022/01/03 05:03:19;;;;;;;42.60;19.65;;;;;;;2.13;100.00;101358.78;5054431;28;20049;-71
2022/01/03 05:05:47;;;;;;;43.33;20.15;;;;;;;2.08;100.00;101366.66;5054753;28;20053;-71
2022/01/03 05:08:15;;;;;;;45.08;22.25;;;;;;;2.40;100.00;101366.94;5046261;28;20060;-71
2022/01/03 05:10:43;;;;;;;43.03;20.20;;;;;;;2.41;100.00;101355.09;5052810;28;20041;-71
2022/01/03 05:13:12;;;;;;;37.97;20.02;;;;;;;2.54;100.00;101359.69;5053011;28;20057;-71
2022/01/03 05:15:40;;;;;;;46.00;20.45;;;;;;;2.55;100.00;101369.47;5053077;28;20052;-71
2022/01/03 05:18:08;;;;;;;40.60;20.25;;;;;;;2.49;100.00;101378.41;5049524;28;20053;-72
2022/01/03 05:20:36;;;;;;;46.78;21.67;;;;;;;2.50;100.00;101380.06;5044922;28;20045;-72
2022/01/03 05:23:05;;;;;;;40.67;19.95;;;;;;;2.49;100.00;101378.41;5036025;28;20053;-71
2022/01/03 05:25:33;;;;;;;42.28;21.00;;;;;;;2.45;100.00;101393.34;5047182;28;20045;-71
2022/01/03 05:28:01;;;;;;;44.03;21.13;;;;;;;2.30;100.00;101380.88;5053667;28;20400;-71
2022/01/03 05:30:30;;;;;;;43.15;22.77;;;;;;;2.28;100.00;101375.66;5053418;28;20407;-71
2022/01/03 05:32:59;;;;;;;44.25;20.65;;;;;;;2.34;100.00;101365.88;5053683;28;20065;-71
2022/01/03 05:35:27;;;;;;;42.42;22.83;;;;;;;2.48;100.00;101372.16;5052624;28;20056;-72
2022/01/03 05:37:55;;;;;;;48.40;23.52;;;;;;;2.54;100.00;101371.31;5045978;28;20052;-72
2022/01/03 05:40:24;;;;;;;42.97;21.92;;;;;;;2.54;100.00;101375.91;5040835;28;20417;-72
2022/01/03 05:42:53;;;;;;;44.90;23.38;;;;;;;2.55;100.00;101366.75;5038259;28;20046;-72
2022/01/03 05:45:26;;;;;;;46.40;22.47;;;;;;;2.52;100.00;101377.97;5030194;28;20048;-72
2022/01/03 05:47:55;;;;;;;41.15;22.67;;;;;;;2.48;100.00;101382.13;5019669;28;20500;-71
2022/01/03 05:50:24;;;;;;;49.08;22.80;;;;;;;2.65;100.00;101363.66;5030372;28;20048;-72
2022/01/03 05:52:53;;;;;;;45.78;21.73;;;;;;;2.40;100.00;101361.56;5051081;28;20048;-72
2022/01/03 05:55:21;;;;;;;46.10;21.92;;;;;;;2.39;100.00;101366.09;5046337;28;20053;-72
2022/01/03 05:57:50;;;;;;;39.65;21.23;;;;;;;2.47;100.00;101361.53;5035462;28;20053;-72
2022/01/03 06:00:24;;;;;;;35.38;20.00;;;;;;;2.49;100.00;101362.19;5045406;28;20420;-72
2022/01/03 06:02:57;;;;;;;37.92;20.05;;;;;;;2.40;100.00;101359.66;5023551;28;20396;-72
2022/01/03 06:08:07;;;;;;;35.88;20.05;;;;;;;2.30;100.00;101359.25;5024224;28;20054;-72
2022/01/03 06:10:41;;;;;;;35.50;18.75;;;;;;;2.44;100.00;101379.00;5027923;28;20049;-72
2022/01/03 06:13:17;;;;;;;36.40;19.90;;;;;;;2.39;100.00;101362.56;5012532;28;20048;-72
2022/01/03 06:15:46;;;;;;;37.40;20.00;;;;;;;2.37;100.00;101357.38;5022719;28;20033;-72
2022/01/03 06:18:16;;;;;;;38.25;20.35;;;;;;;2.30;100.00;101356.56;5030975;28;20064;-72
2022/01/03 06:20:48;;;;;;;38.05;19.52;;;;;;;2.21;100.00;101350.50;5027159;28;20077;-72
2022/01/03 06:23:20;;;;;;;41.20;20.73;;;;;;;2.34;100.00;101329.97;5035385;28;20065;-72
2022/01/03 06:25:48;;;;;;;37.42;19.05;;;;;;;2.33;100.00;101342.63;5050985;28;20045;-72
2022/01/03 06:28:26;;;;;;;41.72;20.45;;;;;;;2.36;100.00;101342.22;5033187;28;20049;-72
2022/01/03 06:30:55;;;;;;;38.30;20.95;;;;;;;2.34;100.00;101338.06;5039230;28;20399;-72
2022/01/03 06:33:23;;;;;;;36.25;19.85;;;;;;;2.28;100.00;101329.75;5044315;28;20049;-72
2022/01/03 06:35:52;;;;;;;34.85;18.52;;;;;;;2.35;100.00;101339.72;5033182;28;20049;-72
2022/01/03 06:38:21;;;;;;;36.03;19.85;;;;;;;2.46;100.00;101346.38;5043892;28;20056;-72
2022/01/03 06:40:49;;;;;;;38.55;20.45;;;;;;;2.44;100.00;101333.06;5035977;28;20045;-72
2022/01/03 06:43:17;;;;;;;38.97;20.25;;;;;;;2.34;100.00;101333.47;5034995;28;20053;-72
2022/01/03 06:45:45;;;;;;;38.08;21.17;;;;;;;2.42;100.00;101330.59;5029622;28;20046;-72
2022/01/03 06:48:13;;;;;;;37.33;20.52;;;;;;;2.53;100.00;101322.88;5030962;28;20050;-71
2022/01/03 06:50:41;;;;;;;39.92;22.13;;;;;;;2.46;100.00;101312.09;5041263;28;20045;-74
2022/01/03 06:53:09;;;;;;;40.53;20.63;;;;;;;2.46;100.00;101312.09;5029492;28;20057;-71
2022/01/03 06:55:39;;;;;;;37.15;19.88;;;;;;;2.29;100.00;101325.16;5030362;28;20041;-72
2022/01/03 06:58:07;;;;;;;38.65;21.02;;;;;;;2.25;100.00;101337.44;5063084;28;20533;-71
2022/01/03 07:00:35;;;;;;;39.20;19.55;;;;;;;2.22;100.00;101337.81;5030143;28;20048;-71
2022/01/03 07:03:04;;;;;;;37.30;21.30;;;;;;;2.44;100.00;101351.16;5063045;28;20064;-71
2022/01/03 07:05:32;;;;;;;42.33;22.60;;;;;;;2.42;100.00;101352.19;5031019;28;20058;-71
2022/01/03 07:08:01;;;;;;;39.05;21.35;;;;;;;2.48;100.00;101352.38;5031412;28;20042;-71
2022/01/03 07:10:28;;;;;;;38.97;21.95;;;;;;;2.49;100.00;101367.59;5031764;28;20053;-71
2022/01/03 07:12:59;;;;;;;41.92;21.33;;;;;;;2.60;100.00;101348.06;5030746;28;20045;-71
2022/01/03 07:21:00;;;;;;;38.58;22.63;;;;;;;2.58;100.00;101350.13;5038550;28;20052;-71
2022/01/03 07:23:28;;;;;;;41.58;21.40;;;;;;;2.55;100.00;101348.66;5036787;28;20052;-72
2022/01/03 07:25:55;;;;;;;37.58;19.42;;;;;;;2.71;100.00;101364.66;5036115;28;20048;-72
2022/01/03 07:28:23;;;;;;;41.80;21.50;;;;;;;2.84;100.00;101370.09;5036988;28;20056;-71
2022/01/03 07:30:51;;;;;;;36.92;21.13;;;;;;;2.86;100.00;101364.47;5036216;28;20061;-71
2022/01/03 07:33:19;;;;;;;43.25;22.85;;;;;;;2.71;100.00;101361.97;5033697;28;20064;-72
2022/01/03 07:35:47;;;;;;;42.58;22.15;;;;;;;2.75;100.00;101365.94;5035102;28;20505;-71
2022/01/03 07:38:15;;;;;;;43.10;22.80;;;;;;;2.77;100.00;101348.47;5037508;28;20045;-72
2022/01/03 07:40:43;;;;;;;39.60;21.63;;;;;;;2.73;100.00;101341.00;5034074;28;20065;-71
2022/01/03 07:43:11;;;;;;;44.83;22.60;;;;;;;2.67;100.00;101351.59;5041011;28;20048;-71
2022/01/03 07:45:39;;;;;;;50.28;22.70;;;;;;;2.86;100.00;101351.78;5036500;28;20048;-71
2022/01/03 07:48:07;;;;;;;40.75;22.00;;;;;;;2.69;100.00;101349.50;5038920;28;20060;-68
2022/01/03 07:50:35;;;;;;;43.38;22.23;;;;;;;2.79;100.00;101353.66;5035913;28;20045;-73
2022/01/03 07:53:04;;;;;;;42.53;21.75;;;;;;;2.87;100.00;101352.59;5036054;28;20064;-73
2022/01/03 07:55:32;;;;;;;41.25;22.58;;;;;;;2.92;100.00;101340.13;5037095;28;20049;-73
2022/01/03 07:57:59;;;;;;;40.03;21.52;;;;;;;3.01;100.00;101329.09;5034993;28;20392;-73
2022/01/03 08:00:27;;;;;;;45.42;23.45;;;;;;;3.07;100.00;101330.94;5036677;28;20060;-73
2022/01/03 08:02:55;;;;;;;39.28;21.90;;;;;;;3.09;100.00;101345.91;5034770;28;20492;-73
2022/01/03 08:05:23;;;;;;;44.53;22.55;;;;;;;3.26;100.00;101336.53;5036917;28;20404;-73
2022/01/03 08:07:51;;;;;;;46.63;22.75;;;;;;;3.30;100.00;101322.38;5033371;28;20037;-73
2022/01/03 08:10:20;;;;;;;40.42;20.73;;;;;;;3.12;100.00;101333.03;5036454;28;20041;-72
2022/01/03 08:12:49;;;;;;;39.25;22.17;;;;;;;3.04;100.00;101336.78;5034336;28;20428;-73
2022/01/03 08:15:16;;;;;;;40.15;22.17;;;;;;;3.17;100.00;101328.66;5034947;28;20033;-73
2022/01/03 08:17:46;;;;;;;40.45;21.33;;;;;;;3.29;100.00;101315.31;5035735;28;20049;-73
2022/01/03 08:20:14;;;;;;;36.33;19.00;;;;;;;3.17;100.00;101338.66;5034138;28;20514;-73
2022/01/03 08:22:42;;;;;;;36.95;19.92;;;;;;;3.23;100.00;101346.72;5050744;28;20045;-73
2022/01/03 08:25:10;;;;;;;36.70;19.35;;;;;;;3.15;100.00;101348.81;5053045;28;20046;-73
2022/01/03 08:27:38;;;;;;;34.70;18.90;;;;;;;3.08;100.00;101348.84;5028655;28;20049;-73
2022/01/03 08:30:06;;;;;;;35.22;19.40;;;;;;;3.02;100.00;101352.38;5035300;28;20045;-73
2022/01/03 08:32:34;;;;;;;35.70;19.02;;;;;;;2.94;100.00;101354.25;5039742;28;20404;-73
2022/01/03 08:35:03;;;;;;;32.03;18.38;;;;;;;2.87;100.00;101356.16;5036103;28;20053;-74
2022/01/03 08:37:31;;;;;;;34.80;17.55;;;;;;;2.71;100.00;101364.66;5051882;28;20045;-74
2022/01/03 08:40:03;;;;;;;33.38;18.23;;;;;;;2.68;100.00;101374.03;5050321;28;20507;-74
2022/01/03 08:42:32;;;;;;;34.80;18.85;;;;;;;2.62;100.00;101377.56;5043312;28;20060;-74
2022/01/03 08:45:03;;;;;;;37.90;19.38;;;;;;;2.77;100.00;101370.09;5038266;28;20037;-72
2022/01/03 08:47:31;;;;;;;34.90;18.77;;;;;;;2.79;100.00;101362.59;5033415;28;20385;-74
2022/01/03 08:49:59;;;;;;;36.17;20.17;;;;;;;2.87;100.00;101368.81;5038864;28;20073;-74
2022/01/03 08:52:27;;;;;;;34.67;18.75;;;;;;;2.89;100.00;101358.66;5042249;28;20049;-73
2022/01/03 08:54:55;;;;;;;32.67;19.35;;;;;;;3.30;100.00;101375.63;5037622;28;20382;-73
2022/01/03 08:57:23;;;;;;;31.77;18.33;;;;;;;3.13;100.00;101362.56;5071787;28;20060;-72
2022/01/03 08:59:52;;;;;;;33.05;19.20;;;;;;;3.33;100.00;101364.41;5040781;28;20488;-73
2022/01/03 09:02:20;;;;;;;36.80;19.58;;;;;;;3.43;100.00;101375.59;5040216;28;20064;-72
2022/01/03 09:04:47;;;;;;;39.13;19.13;;;;;;;4.03;100.00;101371.00;5038539;28;20050;-72
2022/01/03 09:07:15;;;;;;;35.58;19.63;;;;;;;4.06;100.00;101375.16;5041524;28;20514;-72
2022/01/03 09:09:43;;;;;;;34.78;18.65;;;;;;;4.43;100.00;101389.75;5033036;28;20053;-73
2022/01/03 09:12:11;;;;;;;33.70;19.20;;;;;;;4.64;100.00;101392.31;5037404;28;20049;-73
2022/01/03 09:14:40;;;;;;;31.42;17.80;;;;;;;4.63;100.00;101393.34;5039893;28;20395;-71
2022/01/03 09:17:08;;;;;;;36.17;19.48;;;;;;;4.80;100.00;101397.19;5036952;28;20040;-72
2022/01/03 09:19:36;;;;;;;31.73;18.23;;;;;;;5.00;100.00;101395.38;5039625;28;20053;-72
2022/01/03 09:22:29;;;;;;;33.25;18.23;;;;;;;5.01;100.00;101397.03;5037418;28;20049;-72
2022/01/03 09:30:11;;;;;;;30.45;18.42;;;;;;;4.55;100.00;101398.00;5026421;28;20050;-72
2022/01/03 09:32:39;;;;;;;39.10;18.90;;;;;;;4.76;100.00;101404.13;5049049;28;20053;-76
2022/01/03 09:35:08;;;;;;;29.63;17.58;;;;;;;4.69;100.00;101403.31;5039490;28;20037;-74
2022/01/03 09:37:36;;;;;;;32.17;18.10;;;;;;;4.47;100.00;101408.28;5043726;28;20044;-73
2022/01/03 09:40:06;;;;;;;34.97;19.88;;;;;;;4.52;100.00;101403.88;5053319;28;20466;-73
2022/01/03 09:42:34;;;;;;;35.92;19.45;;;;;;;4.66;100.00;101401.91;5053371;28;20071;-73
2022/01/03 09:45:06;;;;;;;36.47;20.45;;;;;;;4.88;100.00;101397.97;5052974;28;20633;-73
2022/01/03 09:47:39;;;;;;;45.45;25.17;;;;;;;4.88;100.00;101406.94;5053441;28;20045;-73
2022/01/03 09:50:08;;;;;;;42.75;22.20;;;;;;;4.84;100.00;101395.69;5052637;28;20056;-73
2022/01/03 09:52:37;;;;;;;47.90;29.67;;;;;;;4.93;100.00;101406.25;5052957;28;20052;-73
2022/01/03 09:55:06;;;;;;;51.83;29.88;;;;;;;4.75;100.00;101388.91;5053112;28;20053;-73
2022/01/03 09:57:34;;;;;;;43.05;25.00;;;;;;;4.76;100.00;101387.84;5052851;28;20048;-73
2022/01/03 10:00:05;;;;;;;34.15;20.17;;;;;;;4.54;100.00;101388.22;5053347;28;20408;-73
2022/01/03 10:02:33;;;;;;;39.15;20.70;;;;;;;4.50;100.00;101376.13;5051459;28;20045;-73
2022/01/03 10:05:02;;;;;;;34.47;20.10;;;;;;;4.70;100.00;101384.13;5051798;28;20204;-73
2022/01/03 10:07:31;;;;;;;40.30;21.13;;;;;;;4.50;100.00;101369.91;5053186;28;20048;-73
2022/01/03 10:10:00;;;;;;;50.10;21.40;;;;;;;4.63;100.00;101379.78;5053161;28;20045;-73
2022/01/03 10:12:28;;;;;;;40.13;21.30;;;;;;;4.96;100.00;101387.69;5052909;28;20403;-73
2022/01/03 10:14:58;;;;;;;37.83;20.67;;;;;;;4.87;100.00;101377.31;5053078;28;20041;-73
2022/01/03 10:17:26;;;;;;;39.85;21.83;;;;;;;4.89;100.00;101378.75;5052675;28;20059;-73
2022/01/03 10:20:01;;;;;;;36.90;21.38;;;;;;;4.88;100.00;101381.72;5053546;28;20490;-73
2022/01/03 10:22:32;;;;;;;35.22;19.65;;;;;;;4.97;100.00;101380.34;5052724;28;20037;-73
2022/01/03 10:25:09;;;;;;;35.47;19.52;;;;;;;4.90;100.00;101385.88;5048568;28;20515;-73
2022/01/03 10:27:49;;;;;;;38.80;23.20;;;;;;;4.83;100.00;101391.34;5034260;28;20044;-73
2022/01/03 10:30:43;;;;;;;37.47;21.27;;;;;;;4.91;100.00;101392.09;5030285;28;20045;-72
2022/01/03 10:33:17;;;;;;;39.97;23.00;;;;;;;5.00;100.00;101374.50;5030502;28;20057;-74
2022/01/03 10:35:51;;;;;;;43.38;23.30;;;;;;;5.12;100.00;101371.88;5040551;28;20499;-73
2022/01/03 10:38:35;;;;;;;44.92;20.92;;;;;;;5.17;100.00;101357.63;5037590;28;20053;-74
2022/01/03 10:41:15;;;;;;;;;;;;;;;5.20;100.00;101360.75;5035926;28;20053;-72
2022/01/03 10:43:46;;;;;;;45.03;22.63;;;;;;;5.37;100.00;101357.41;5037090;28;19920;-72
2022/01/03 10:46:29;;;;;;;40.10;21.92;;;;;;;5.28;100.00;101354.16;5030744;28;20037;-72
2022/01/03 10:49:13;;;;;;;39.15;21.15;;;;;;;5.47;100.00;101354.22;5031156;28;20049;-73
2022/01/03 10:51:42;;;;;;;38.58;21.27;;;;;;;5.53;100.00;101360.59;5028764;28;20041;-74
2022/01/03 10:54:16;;;;;;;39.90;20.20;;;;;;;5.31;100.00;101361.88;5031296;28;20064;-74
2022/01/03 10:56:50;;;;;;;40.30;21.25;;;;;;;5.31;100.00;101353.75;5030116;28;20041;-74
2022/01/03 10:59:22;;;;;;;36.55;20.95;;;;;;;5.21;100.00;101350.72;5031353;28;20041;-74
2022/01/03 11:02:01;;;;;;;41.92;22.02;;;;;;;5.14;100.00;101352.66;5028598;28;20052;-74
2022/01/03 11:04:41;;;;;;;40.28;20.85;;;;;;;5.33;100.00;101346.19;5029805;28;20057;-73
2022/01/03 11:13:18;;;;;;;39.65;22.55;;;;;;;4.87;100.00;101325.78;5029248;28;20042;-72
2022/01/03 11:16:04;;;;;;;41.38;21.10;;;;;;;5.21;100.00;101326.28;5029791;28;20087;-71
2022/01/03 11:18:38;;;;;;;41.83;22.40;;;;;;;5.17;100.00;101330.50;5030781;28;20065;-71
2022/01/03 11:21:16;;;;;;;41.17;23.05;;;;;;;5.10;100.00;101304.25;5035903;28;20515;-71
2022/01/03 11:23:49;;;;;;;39.97;22.05;;;;;;;5.15;100.00;101302.75;5036035;28;20057;-71
2022/01/03 11:26:22;;;;;;;37.83;23.38;;;;;;;5.12;100.00;101312.19;5035848;28;20140;-71
2022/01/03 11:28:50;;;;;;;44.75;23.13;;;;;;;5.25;100.00;101311.22;5038992;28;20042;-71
2022/01/03 11:31:20;;;;;;;40.67;23.65;;;;;;;5.13;100.00;101294.03;5035316;28;20041;-71
2022/01/03 11:33:51;;;;;;;43.20;23.60;;;;;;;4.99;100.00;101294.19;5036445;28;20431;-71
2022/01/03 11:36:40;;;;;;;38.95;23.05;;;;;;;5.13;100.00;101296.75;5029721;28;20030;-71
2022/01/03 11:39:11;;;;;;;42.22;22.67;;;;;;;5.27;100.00;101279.25;5038049;28;20042;-71
2022/01/03 11:41:44;;;;;;;46.15;24.55;;;;;;;5.35;100.00;101289.81;5027358;28;20056;-72
2022/01/03 11:44:15;;;;;;;47.85;24.92;;;;;;;5.23;100.00;101284.28;5027225;28;20052;-72
2022/01/03 11:46:47;;;;;;;47.50;25.58;;;;;;;5.19;100.00;101291.22;5029024;28;20045;-71